createdAt,value
2018-06-21T00:01:54.110Z,74.13
2018-06-21T00:04:23.891Z,73.75
2018-06-21T00:06:53.481Z,74.01
2018-06-21T00:09:23.438Z,73.84
2018-06-21T00:11:52.935Z,74.16
2018-06-21T00:14:22.744Z,72.98
2018-06-21T00:16:52.367Z,73.64
2018-06-21T00:19:22.061Z,73.01
2018-06-21T00:21:51.822Z,72.87
2018-06-21T00:24:21.702Z,73.25
2018-06-21T00:26:51.642Z,72.97
2018-06-21T00:29:21.883Z,73.20
2018-06-21T00:31:51.755Z,74.13
2018-06-21T00:34:22.393Z,73.76
2018-06-21T00:36:52.173Z,74.04
2018-06-21T00:39:21.882Z,74.27
2018-06-21T00:41:51.662Z,73.45
2018-06-21T00:44:21.365Z,74.07
2018-06-21T00:46:51.071Z,73.62
2018-06-21T00:49:20.778Z,73.35
2018-06-21T00:51:50.558Z,73.62
2018-06-21T00:54:20.698Z,73.46
2018-06-21T00:56:50.454Z,73.51
2018-06-21T00:59:20.209Z,73.71
2018-06-21T01:01:49.882Z,73.60
2018-06-21T01:04:19.747Z,74.24
2018-06-21T01:06:49.530Z,74.42
2018-06-21T01:09:19.681Z,74.86
2018-06-21T01:11:49.470Z,75.07
2018-06-21T01:14:19.194Z,75.50
2018-06-21T01:16:49.024Z,75.60
2018-06-21T01:19:19.195Z,75.96
2018-06-21T01:21:48.951Z,75.68
2018-06-21T01:24:18.642Z,76.25
2018-06-21T01:26:48.317Z,76.78
2018-06-21T01:29:18.419Z,76.76
2018-06-21T01:31:48.198Z,77.23
2018-06-21T01:34:17.882Z,77.38
2018-06-21T01:36:47.731Z,77.99
2018-06-21T01:39:17.238Z,77.81
2018-06-21T01:41:47.123Z,77.66
2018-06-21T01:44:17.046Z,77.89
2018-06-21T01:46:46.862Z,78.05
2018-06-21T01:49:16.506Z,78.64
2018-06-21T01:51:46.235Z,79.27
2018-06-21T01:54:16.256Z,79.62
2018-06-21T01:56:46.165Z,79.78
2018-06-21T01:59:16.026Z,79.88
2018-06-21T02:01:45.802Z,79.89
2018-06-21T02:04:16.302Z,80.26
2018-06-21T02:06:46.108Z,80.70
2018-06-21T02:09:15.837Z,80.99
2018-06-21T02:11:45.578Z,81.16
2018-06-21T02:14:15.502Z,81.01
2018-06-21T02:16:45.422Z,81.13
2018-06-21T02:19:15.079Z,81.08
2018-06-21T02:21:44.828Z,81.54
2018-06-21T02:24:14.506Z,81.90
2018-06-21T02:26:44.362Z,81.82
2018-06-21T02:29:14.186Z,82.56
2018-06-21T02:31:44.106Z,83.10
2018-06-21T02:34:13.949Z,82.55
2018-06-21T02:36:44.103Z,83.05
2018-06-21T02:39:13.864Z,82.86
2018-06-21T02:41:44.475Z,83.01
2018-06-21T02:44:14.216Z,83.15
2018-06-21T02:46:44.006Z,82.95
2018-06-21T02:49:13.644Z,83.85
2018-06-21T02:51:43.456Z,83.04
2018-06-21T02:54:12.895Z,83.67
2018-06-21T02:56:42.800Z,83.66
2018-06-21T02:59:13.146Z,83.73
2018-06-21T03:01:42.926Z,83.00
2018-06-21T03:04:12.611Z,82.72
2018-06-21T03:06:42.354Z,82.11
2018-06-21T03:09:12.037Z,81.74
2018-06-21T03:11:41.828Z,80.27
2018-06-21T03:14:11.710Z,79.02
2018-06-21T03:16:41.642Z,78.54
2018-06-21T03:19:11.234Z,77.41
2018-06-21T03:21:41.050Z,76.80
2018-06-21T03:24:10.822Z,76.58
2018-06-21T03:26:40.578Z,76.17
2018-06-21T03:29:10.320Z,75.73
2018-06-21T03:31:40.118Z,74.76
2018-06-21T03:34:10.345Z,74.22
2018-06-21T03:36:40.095Z,73.76
2018-06-21T03:39:09.870Z,73.21
2018-06-21T03:41:39.286Z,72.83
2018-06-21T03:44:08.708Z,72.07
2018-06-21T03:46:38.520Z,72.02
2018-06-21T03:49:08.397Z,71.49
2018-06-21T03:51:38.070Z,71.05
2018-06-21T03:54:07.818Z,70.27
2018-06-21T03:56:37.575Z,69.98
2018-06-21T03:59:07.458Z,69.18
2018-06-21T04:01:37.254Z,69.22
2018-06-21T04:04:07.124Z,68.84
2018-06-21T04:06:36.918Z,68.41
2018-06-21T04:09:09.466Z,68.30
2018-06-21T04:11:39.518Z,67.71
2018-06-21T04:14:08.966Z,66.92
2018-06-21T04:16:38.774Z,66.79
2018-06-21T04:19:08.166Z,66.32
2018-06-21T04:21:38.089Z,66.60
2018-06-21T04:24:07.804Z,66.26
2018-06-21T04:26:37.545Z,65.15
2018-06-21T04:29:07.327Z,65.32
2018-06-21T04:31:37.694Z,64.33
2018-06-21T04:34:07.483Z,64.24
2018-06-21T04:36:37.490Z,63.46
2018-06-21T04:39:08.422Z,63.78
2018-06-21T04:41:38.445Z,62.31
2018-06-21T04:44:08.376Z,62.12
2018-06-21T04:46:37.892Z,62.59
2018-06-21T04:49:07.642Z,62.38
2018-06-21T04:51:37.659Z,61.76
2018-06-21T04:54:07.550Z,60.59
2018-06-21T04:56:37.782Z,60.23
2018-06-21T04:59:07.469Z,60.54
2018-06-21T05:01:37.862Z,59.46
2018-06-21T05:04:08.224Z,56.72
2018-06-21T05:06:38.614Z,54.09
2018-06-21T05:09:11.311Z,52.12
2018-06-21T05:11:41.622Z,47.55
2018-06-21T05:14:12.255Z,46.03
2018-06-21T05:16:42.796Z,44.18
2018-06-21T05:19:13.299Z,41.04
2018-06-21T05:21:43.661Z,39.77
2018-06-21T05:24:14.125Z,38.33
2018-06-21T05:26:44.518Z,36.95
2018-06-21T05:29:14.878Z,36.74
2018-06-21T05:31:45.270Z,37.09
2018-06-21T05:34:15.570Z,35.58
2018-06-21T05:36:45.915Z,35.71
2018-06-21T05:39:16.732Z,35.67
2018-06-21T05:41:46.694Z,35.52
2018-06-21T05:44:16.806Z,37.16
2018-06-21T05:46:47.062Z,35.43
2018-06-21T05:49:17.404Z,33.73
2018-06-21T05:51:48.003Z,31.40
2018-06-21T05:54:18.326Z,29.63
2018-06-21T05:56:48.618Z,28.85
2018-06-21T05:59:18.950Z,28.58
2018-06-21T06:01:49.258Z,26.86
2018-06-21T06:04:19.346Z,23.77
2018-06-21T06:06:49.834Z,23.42
2018-06-21T06:09:19.851Z,23.91
2018-06-21T06:11:49.770Z,23.93
2018-06-21T06:14:19.644Z,22.21
2018-06-21T06:16:49.815Z,21.12
2018-06-21T06:19:19.529Z,20.52
2018-06-21T06:21:50.170Z,21.56
2018-06-21T06:24:19.927Z,21.84
2018-06-21T06:26:49.950Z,21.62
2018-06-21T06:29:19.991Z,20.94
2018-06-21T06:31:49.998Z,19.20
2018-06-21T06:34:19.978Z,17.15
2018-06-21T06:36:49.982Z,16.63
2018-06-21T06:39:21.030Z,16.81
2018-06-21T06:41:51.818Z,15.89
2018-06-21T06:44:21.866Z,15.14
2018-06-21T06:46:51.870Z,16.38
2018-06-21T06:49:21.908Z,14.39
2018-06-21T06:51:51.929Z,14.97
2018-06-21T06:54:22.266Z,14.90
2018-06-21T06:56:51.990Z,14.78
2018-06-21T06:59:21.956Z,14.50
2018-06-21T07:01:51.929Z,13.63
2018-06-21T07:04:22.296Z,13.52
2018-06-21T07:06:52.522Z,13.89
2018-06-21T07:09:22.546Z,13.24
2018-06-21T07:11:52.306Z,13.53
2018-06-21T07:14:22.360Z,12.90
2018-06-21T07:16:52.602Z,13.01
2018-06-21T07:19:22.573Z,14.93
2018-06-21T07:21:52.264Z,14.22
2018-06-21T07:24:22.213Z,14.28
2018-06-21T07:26:52.186Z,15.05
2018-06-21T07:29:22.197Z,13.13
2018-06-21T07:31:52.163Z,13.54
2018-06-21T07:34:22.167Z,13.56
2018-06-21T07:36:52.150Z,14.39
2018-06-21T07:39:23.670Z,15.15
2018-06-21T07:41:53.667Z,15.54
2018-06-21T07:44:23.670Z,15.72
2018-06-21T07:46:53.662Z,13.97
2018-06-21T07:49:23.854Z,13.91
2018-06-21T07:51:53.843Z,12.88
2018-06-21T07:54:23.870Z,13.14
2018-06-21T07:56:53.815Z,12.02
2018-06-21T07:59:23.808Z,11.76
2018-06-21T08:01:53.786Z,12.64
2018-06-21T08:04:23.766Z,12.52
2018-06-21T08:06:53.766Z,13.06
2018-06-21T08:09:23.746Z,13.49
2018-06-21T08:11:53.738Z,12.91
2018-06-21T08:14:23.739Z,13.80
2018-06-21T08:16:53.426Z,13.38
2018-06-21T08:19:23.441Z,13.21
2018-06-21T08:21:53.430Z,12.84
2018-06-21T08:24:23.435Z,12.65
2018-06-21T08:26:53.362Z,14.23
2018-06-21T08:29:23.507Z,14.28
2018-06-21T08:31:53.790Z,13.37
2018-06-21T08:34:23.771Z,11.73
2018-06-21T08:36:53.797Z,12.37
2018-06-21T08:39:23.786Z,14.11
2018-06-21T08:41:53.854Z,12.72
2018-06-21T08:44:23.928Z,12.85
2018-06-21T08:46:53.918Z,13.02
2018-06-21T08:49:23.627Z,13.06
2018-06-21T08:51:53.328Z,12.45
2018-06-21T08:54:23.546Z,14.41
2018-06-21T08:56:53.524Z,14.68
2018-06-21T08:59:23.530Z,15.73
2018-06-21T09:01:53.503Z,17.25
2018-06-21T09:04:23.882Z,15.42
2018-06-21T09:06:53.887Z,15.38
2018-06-21T09:09:23.842Z,15.12
2018-06-21T09:11:54.158Z,15.08
2018-06-21T09:14:24.134Z,17.14
2018-06-21T09:16:54.140Z,16.78
2018-06-21T09:19:24.114Z,17.39
2018-06-21T09:21:54.105Z,18.93
2018-06-21T09:24:23.906Z,17.75
2018-06-21T09:26:54.115Z,18.43
2018-06-21T09:29:24.136Z,19.36
2018-06-21T09:31:54.418Z,18.71
2018-06-21T09:34:24.412Z,18.34
2018-06-21T09:36:54.465Z,18.92
2018-06-21T09:39:29.503Z,19.26
2018-06-21T09:42:04.974Z,19.94
2018-06-21T09:44:36.195Z,20.02
2018-06-21T09:47:11.710Z,20.69
2018-06-21T09:49:42.044Z,21.84
2018-06-21T09:52:12.322Z,22.08
2018-06-21T09:54:42.420Z,21.75
2018-06-21T09:57:12.814Z,22.71
2018-06-21T09:59:43.127Z,22.15
2018-06-21T10:02:13.554Z,22.36
2018-06-21T10:04:43.632Z,22.49
2018-06-21T10:07:13.707Z,24.24
2018-06-21T10:09:44.102Z,24.16
2018-06-21T10:12:14.418Z,24.17
2018-06-21T10:14:44.774Z,25.28
2018-06-21T10:17:15.449Z,24.70
2018-06-21T10:19:45.814Z,25.02
2018-06-21T10:22:15.971Z,24.89
2018-06-21T10:24:45.978Z,24.00
2018-06-21T10:27:16.281Z,25.21
2018-06-21T10:29:46.630Z,25.96
2018-06-21T10:32:16.934Z,26.15
2018-06-21T10:34:47.212Z,26.69
2018-06-21T10:37:17.643Z,26.17
2018-06-21T10:39:47.973Z,25.90
2018-06-21T10:42:18.354Z,26.25
2018-06-21T10:44:48.739Z,25.54
2018-06-21T10:47:19.060Z,27.34
2018-06-21T10:49:49.029Z,27.65
2018-06-21T10:52:19.390Z,25.78
2018-06-21T10:54:49.688Z,26.92
2018-06-21T10:57:19.950Z,26.78
2018-06-21T10:59:50.240Z,26.67
2018-06-21T11:02:20.487Z,27.05
2018-06-21T11:04:50.795Z,27.68
2018-06-21T11:07:21.070Z,26.88
2018-06-21T11:09:51.366Z,28.05
2018-06-21T11:12:21.624Z,28.60
2018-06-21T11:14:52.016Z,28.93
2018-06-21T11:17:22.392Z,30.47
2018-06-21T11:19:52.730Z,29.57
2018-06-21T11:22:23.037Z,29.41
2018-06-21T11:24:53.376Z,29.37
2018-06-21T11:27:24.136Z,28.87
2018-06-21T11:29:54.417Z,28.44
2018-06-21T11:32:24.923Z,28.85
2018-06-21T11:34:55.211Z,28.74
2018-06-21T11:37:25.458Z,29.42
2018-06-21T11:39:55.856Z,28.07
2018-06-21T11:42:26.113Z,28.39
2018-06-21T11:44:56.510Z,27.46
2018-06-21T11:47:26.835Z,28.18
2018-06-21T11:49:57.346Z,28.29
2018-06-21T11:52:27.598Z,30.56
2018-06-21T11:54:57.861Z,28.59
2018-06-21T11:57:28.134Z,28.99
2018-06-21T11:59:58.410Z,29.54
2018-06-21T12:02:28.810Z,30.96
2018-06-21T12:04:59.066Z,29.65
2018-06-21T12:07:29.070Z,28.92
2018-06-21T12:09:59.037Z,29.40
2018-06-21T12:12:29.304Z,30.28
2018-06-21T12:14:59.582Z,29.03
2018-06-21T12:17:29.910Z,29.12
2018-06-21T12:20:00.198Z,28.39
2018-06-21T12:22:30.191Z,29.17
2018-06-21T12:25:00.534Z,27.97
2018-06-21T12:27:30.526Z,28.24
2018-06-21T12:30:00.814Z,29.18
2018-06-21T12:32:31.066Z,27.64
2018-06-21T12:35:01.369Z,29.67
2018-06-21T12:37:31.859Z,29.28
2018-06-21T12:40:02.132Z,30.06
2018-06-21T12:42:32.447Z,29.23
2018-06-21T12:45:02.855Z,29.02
2018-06-21T12:47:33.210Z,28.78
2018-06-21T12:50:03.666Z,28.61
2018-06-21T12:52:33.701Z,28.59
2018-06-21T12:55:04.155Z,29.10
2018-06-21T12:57:34.462Z,28.46
2018-06-21T13:00:04.880Z,28.99
2018-06-21T13:02:34.962Z,28.74
2018-06-21T13:05:05.225Z,29.63
2018-06-21T13:07:35.554Z,28.72
2018-06-21T13:10:17.075Z,29.88
2018-06-21T13:13:08.699Z,29.86
2018-06-21T13:15:39.046Z,28.97
2018-06-21T13:18:09.319Z,30.12
2018-06-21T13:20:39.633Z,29.90
2018-06-21T13:23:09.911Z,30.77
2018-06-21T13:25:40.296Z,31.31
2018-06-21T13:28:10.647Z,30.93
2018-06-21T13:30:40.661Z,30.17
2018-06-21T13:33:10.938Z,30.66
2018-06-21T13:35:41.201Z,31.06
2018-06-21T13:38:11.494Z,30.52
2018-06-21T13:40:41.761Z,29.94
2018-06-21T13:43:12.159Z,31.25
2018-06-21T13:45:42.522Z,29.36
2018-06-21T13:48:12.534Z,29.93
2018-06-21T13:50:42.790Z,31.38
2018-06-21T13:53:13.928Z,30.53
2018-06-21T13:55:44.262Z,29.95
2018-06-21T13:58:14.538Z,31.63
2018-06-21T14:00:44.850Z,30.38
2018-06-21T14:03:15.139Z,31.47
2018-06-21T14:05:45.405Z,31.05
2018-06-21T14:08:15.823Z,30.31
2018-06-21T14:10:46.236Z,31.51
2018-06-21T14:13:16.540Z,32.25
2018-06-21T14:15:46.559Z,34.12
2018-06-21T14:18:17.289Z,35.96
2018-06-21T14:20:48.236Z,36.77
2018-06-21T14:23:18.515Z,39.50
2018-06-21T14:25:48.541Z,47.09
2018-06-21T14:28:18.790Z,50.71
2018-06-21T14:30:49.134Z,54.26
2018-06-21T14:33:19.490Z,59.00
2018-06-21T14:35:49.995Z,61.14
2018-06-21T14:38:20.460Z,64.73
2018-06-21T14:40:50.777Z,67.98
2018-06-21T14:43:21.118Z,70.02
2018-06-21T14:45:51.371Z,72.98
2018-06-21T14:48:21.692Z,73.14
2018-06-21T14:50:52.184Z,73.31
2018-06-21T14:53:22.179Z,75.51
2018-06-21T14:55:52.495Z,76.35
2018-06-21T14:58:22.226Z,79.30
2018-06-21T15:00:52.135Z,79.57
2018-06-21T15:03:21.878Z,80.49
2018-06-21T15:05:51.558Z,79.39
2018-06-21T15:08:21.912Z,80.29
2018-06-21T15:10:52.175Z,80.06
2018-06-21T15:13:21.592Z,78.99
2018-06-21T15:15:51.375Z,79.30
2018-06-21T15:18:21.067Z,79.41
2018-06-21T15:20:51.371Z,80.51
2018-06-21T15:23:21.054Z,81.24
2018-06-21T15:25:51.350Z,81.86
2018-06-21T15:28:21.623Z,75.26
2018-06-21T15:30:51.379Z,74.04
2018-06-21T15:33:21.101Z,74.50
2018-06-21T15:35:50.511Z,73.68
2018-06-21T15:38:20.493Z,76.56
2018-06-21T15:40:50.554Z,75.35
2018-06-21T15:43:20.250Z,73.92
2018-06-21T15:45:49.962Z,72.03
2018-06-21T15:48:19.936Z,70.38
2018-06-21T15:50:49.659Z,71.44
2018-06-21T15:53:19.431Z,71.66
2018-06-21T15:55:49.122Z,71.32
2018-06-21T15:58:19.370Z,70.63
2018-06-21T16:00:49.414Z,73.34
2018-06-21T16:03:19.113Z,72.87
2018-06-21T16:05:48.830Z,72.86
2018-06-21T16:08:18.509Z,74.15
2018-06-21T16:10:48.208Z,72.32
2018-06-21T16:13:18.453Z,71.21
2018-06-21T16:15:48.790Z,71.00
2018-06-21T16:18:18.646Z,69.52
2018-06-21T16:20:48.346Z,68.80
2018-06-21T16:23:18.018Z,67.43
2018-06-21T16:25:47.701Z,67.02
2018-06-21T16:28:17.420Z,66.43
2018-06-21T16:30:47.326Z,67.08
2018-06-21T16:33:17.017Z,67.01
2018-06-21T16:35:46.694Z,66.64
2018-06-21T16:38:16.354Z,66.50
2018-06-21T16:40:46.085Z,67.39
2018-06-21T16:43:15.504Z,65.18
2018-06-21T16:45:45.213Z,64.66
2018-06-21T16:48:14.879Z,64.36
2018-06-21T16:50:44.547Z,64.70
2018-06-21T16:53:14.292Z,64.45
2018-06-21T16:55:44.347Z,63.55
2018-06-21T16:58:14.053Z,63.57
2018-06-21T17:00:44.156Z,62.67
2018-06-21T17:03:13.847Z,60.70
2018-06-21T17:05:43.602Z,60.59
2018-06-21T17:08:13.294Z,58.43
2018-06-21T17:10:42.697Z,58.45
2018-06-21T17:13:12.391Z,59.02
2018-06-21T17:15:42.059Z,56.36
2018-06-21T17:18:11.813Z,55.31
2018-06-21T17:20:41.502Z,55.20
2018-06-21T17:23:11.210Z,55.54
2018-06-21T17:25:40.898Z,55.65
2018-06-21T17:28:10.569Z,55.25
2018-06-21T17:30:40.442Z,54.36
2018-06-21T17:33:10.115Z,54.86
2018-06-21T17:35:39.848Z,54.22
2018-06-21T17:38:09.534Z,54.65
2018-06-21T17:40:38.932Z,54.52
2018-06-21T17:43:08.646Z,53.96
2018-06-21T17:45:38.407Z,53.30
2018-06-21T17:48:08.242Z,54.44
2018-06-21T17:50:37.950Z,54.82
2018-06-21T17:53:07.643Z,53.18
2018-06-21T17:55:37.354Z,53.96
2018-06-21T17:58:07.094Z,54.72
2018-06-21T18:00:36.987Z,54.08
2018-06-21T18:03:06.666Z,53.12
2018-06-21T18:05:36.342Z,53.27
2018-06-21T18:08:06.094Z,55.38
2018-06-21T18:10:35.808Z,55.23
2018-06-21T18:13:05.530Z,54.46
2018-06-21T18:15:35.223Z,55.68
2018-06-21T18:18:04.922Z,55.79
2018-06-21T18:20:34.631Z,56.24
2018-06-21T18:23:04.318Z,56.20
2018-06-21T18:25:34.082Z,58.57
2018-06-21T18:28:03.816Z,56.66
2018-06-21T18:30:33.487Z,56.93
2018-06-21T18:33:03.219Z,56.79
2018-06-21T18:35:33.130Z,58.07
2018-06-21T18:38:02.693Z,58.13
2018-06-21T18:40:32.412Z,57.95
2018-06-21T18:43:02.162Z,59.90
2018-06-21T18:45:31.919Z,58.88
2018-06-21T18:48:01.649Z,59.44
2018-06-21T18:50:31.362Z,61.10
2018-06-21T18:53:01.114Z,60.95
2018-06-21T18:55:30.818Z,61.37
2018-06-21T18:58:00.539Z,61.21
2018-06-21T19:00:30.232Z,61.65
2018-06-21T19:02:59.928Z,59.90
2018-06-21T19:05:29.606Z,60.17
2018-06-21T19:08:04.608Z,59.10
2018-06-21T19:10:39.366Z,55.85
2018-06-21T19:13:08.978Z,54.86
2018-06-21T19:15:38.881Z,56.18
2018-06-21T19:18:08.559Z,54.70
2018-06-21T19:20:38.478Z,56.57
2018-06-21T19:23:08.434Z,56.19
2018-06-21T19:25:38.208Z,56.52
2018-06-21T19:28:08.107Z,56.39
2018-06-21T19:30:38.266Z,55.44
2018-06-21T19:33:08.342Z,56.35
2018-06-21T19:35:38.054Z,56.83
2018-06-21T19:38:07.815Z,57.22
2018-06-21T19:40:37.598Z,55.95
2018-06-21T19:43:07.319Z,56.84
2018-06-21T19:45:37.249Z,58.24
2018-06-21T19:48:06.929Z,57.81
2018-06-21T19:50:36.657Z,56.41
2018-06-21T19:53:06.342Z,56.57
2018-06-21T19:55:35.739Z,57.16
2018-06-21T19:58:05.221Z,57.56
2018-06-21T20:00:34.920Z,57.37
2018-06-21T20:03:04.376Z,60.00
2018-06-21T20:05:34.051Z,60.77
2018-06-21T20:08:03.758Z,61.32
2018-06-21T20:10:33.207Z,63.43
2018-06-21T20:13:02.874Z,62.63
2018-06-21T20:15:43.983Z,62.09
2018-06-21T20:18:13.392Z,62.43
2018-06-21T20:20:42.802Z,63.51
2018-06-21T20:23:12.490Z,63.93
2018-06-21T20:25:42.166Z,63.60
2018-06-21T20:28:11.761Z,65.43
2018-06-21T20:30:41.646Z,65.55
2018-06-21T20:33:11.318Z,66.25
2018-06-21T20:35:41.082Z,68.21
2018-06-21T20:38:10.777Z,67.48
2018-06-21T20:40:40.750Z,69.91
2018-06-21T20:43:10.150Z,69.47
2018-06-21T20:45:39.818Z,70.30
2018-06-21T20:48:09.536Z,71.87
2018-06-21T20:50:39.366Z,71.89
2018-06-21T20:53:08.806Z,70.87
2018-06-21T20:55:38.530Z,72.96
2018-06-21T20:58:08.015Z,73.83
2018-06-21T21:00:37.695Z,74.93
2018-06-21T21:03:07.083Z,74.83
2018-06-21T21:05:37.162Z,74.25
2018-06-21T21:08:06.851Z,75.26
2018-06-21T21:10:36.551Z,75.87
2018-06-21T21:13:07.008Z,75.82
2018-06-21T21:15:37.549Z,74.74
2018-06-21T21:18:08.396Z,75.68
2018-06-21T21:20:38.122Z,75.13
2018-06-21T21:23:07.580Z,76.12
2018-06-21T21:25:37.193Z,75.92
2018-06-21T21:28:06.610Z,76.40
2018-06-21T21:30:36.295Z,77.08
2018-06-21T21:33:06.061Z,77.00
2018-06-21T21:35:35.726Z,77.79
2018-06-21T21:38:05.486Z,78.19
2018-06-21T21:40:35.175Z,78.47
2018-06-21T21:43:04.878Z,79.57
2018-06-21T21:45:34.613Z,79.74
2018-06-21T21:48:04.311Z,79.12
2018-06-21T21:50:33.968Z,79.31
2018-06-21T21:53:03.394Z,77.11
2018-06-21T21:55:32.788Z,77.73
2018-06-21T21:58:02.494Z,76.57
2018-06-21T22:00:49.075Z,76.30
2018-06-21T22:03:18.519Z,77.09
2018-06-21T22:05:48.216Z,77.61
2018-06-21T22:08:17.726Z,76.67
2018-06-21T22:10:48.136Z,77.85
2018-06-21T22:13:17.915Z,78.06
2018-06-21T22:15:47.580Z,77.51
2018-06-21T22:18:16.991Z,76.83
2018-06-21T22:20:46.396Z,76.16
2018-06-21T22:23:16.070Z,76.01
2018-06-21T22:25:45.772Z,76.13
2018-06-21T22:28:15.493Z,75.42
2018-06-21T22:30:45.203Z,75.90
2018-06-21T22:33:14.614Z,75.79
2018-06-21T22:35:44.303Z,75.29
2018-06-21T22:38:13.687Z,74.85
2018-06-21T22:40:43.138Z,74.95
2018-06-21T22:43:12.856Z,75.35
2018-06-21T22:45:42.308Z,75.70
2018-06-21T22:48:11.710Z,75.29
2018-06-21T22:50:41.407Z,75.62
2018-06-21T22:53:11.415Z,76.05
2018-06-21T22:55:41.166Z,76.46
2018-06-21T22:58:11.011Z,77.02
2018-06-21T23:00:40.910Z,76.67
2018-06-21T23:03:10.318Z,75.88
2018-06-21T23:05:39.758Z,76.34
2018-06-21T23:08:09.156Z,75.65
2018-06-21T23:10:38.560Z,74.13
2018-06-21T23:13:08.401Z,74.44
2018-06-21T23:15:37.830Z,75.18
2018-06-21T23:18:07.534Z,75.21
2018-06-21T23:20:36.946Z,74.48
2018-06-21T23:23:06.642Z,75.60
2018-06-21T23:25:36.318Z,75.29
2018-06-21T23:28:06.003Z,75.54
2018-06-21T23:30:35.718Z,76.05
2018-06-21T23:33:05.456Z,75.76
2018-06-21T23:35:35.146Z,76.05
2018-06-21T23:38:04.802Z,76.38
2018-06-21T23:40:34.496Z,76.11
2018-06-21T23:43:04.197Z,76.21
2018-06-21T23:45:34.030Z,75.80
2018-06-21T23:48:03.718Z,75.12
2018-06-21T23:50:33.114Z,74.95
2018-06-21T23:53:02.774Z,74.32
2018-06-21T23:55:32.486Z,74.69
2018-06-21T23:58:02.163Z,74.43
